sensor_id;sensor_type;location;lat;lon;timestamp;P1;durP1;ratioP1;P2;durP2;ratioP2
77061;SDS011;65989;51.686;5.138;2023-02-15T00:02:24;47.63;;;21.38;;
77061;SDS011;65989;51.686;5.138;2023-02-15T00:04:49;39.93;;;20.23;;
77061;SDS011;65989;51.686;5.138;2023-02-15T00:07:15;42.17;;;20.30;;
77061;SDS011;65989;51.686;5.138;2023-02-15T00:09:42;41.13;;;21.05;;
77061;SDS011;65989;51.686;5.138;2023-02-15T00:12:10;41.78;;;21.15;;
77061;SDS011;65989;51.686;5.138;2023-02-15T00:14:35;46.70;;;22.27;;
77061;SDS011;65989;51.686;5.138;2023-02-15T00:17:00;39.63;;;20.83;;
77061;SDS011;65989;51.686;5.138;2023-02-15T00:19:26;42.17;;;20.52;;
77061;SDS011;65989;51.686;5.138;2023-02-15T00:21:51;42.83;;;20.17;;
77061;SDS011;65989;51.686;5.138;2023-02-15T00:24:17;45.33;;;21.67;;
77061;SDS011;65989;51.686;5.138;2023-02-15T00:26:44;45.30;;;22.30;;
77061;SDS011;65989;51.686;5.138;2023-02-15T00:29:11;42.70;;;22.45;;
77061;SDS011;65989;51.686;5.138;2023-02-15T00:31:38;48.08;;;21.80;;
77061;SDS011;65989;51.686;5.138;2023-02-15T00:34:05;44.60;;;22.17;;
77061;SDS011;65989;51.686;5.138;2023-02-15T00:36:38;45.40;;;23.55;;
77061;SDS011;65989;51.686;5.138;2023-02-15T00:39:04;43.97;;;22.63;;
77061;SDS011;65989;51.686;5.138;2023-02-15T00:41:30;44.30;;;20.87;;
77061;SDS011;65989;51.686;5.138;2023-02-15T00:43:55;46.08;;;21.77;;
77061;SDS011;65989;51.686;5.138;2023-02-15T00:46:21;42.33;;;21.97;;
77061;SDS011;65989;51.686;5.138;2023-02-15T00:48:46;46.22;;;21.35;;
77061;SDS011;65989;51.686;5.138;2023-02-15T00:51:12;46.63;;;21.97;;
77061;SDS011;65989;51.686;5.138;2023-02-15T00:53:37;43.10;;;21.97;;
77061;SDS011;65989;51.686;5.138;2023-02-15T00:56:02;43.30;;;22.07;;
77061;SDS011;65989;51.686;5.138;2023-02-15T00:58:28;49.30;;;22.23;;
77061;SDS011;65989;51.686;5.138;2023-02-15T01:00:53;46.30;;;22.02;;
77061;SDS011;65989;51.686;5.138;2023-02-15T01:03:19;46.97;;;22.63;;
77061;SDS011;65989;51.686;5.138;2023-02-15T01:05:46;45.80;;;21.60;;
77061;SDS011;65989;51.686;5.138;2023-02-15T01:08:13;42.60;;;21.53;;
77061;SDS011;65989;51.686;5.138;2023-02-15T01:10:39;44.30;;;21.17;;
77061;SDS011;65989;51.686;5.138;2023-02-15T01:13:05;50.70;;;23.17;;
77061;SDS011;65989;51.686;5.138;2023-02-15T01:15:30;51.42;;;21.75;;
77061;SDS011;65989;51.686;5.138;2023-02-15T01:17:56;45.33;;;22.03;;
77061;SDS011;65989;51.686;5.138;2023-02-15T01:20:23;48.90;;;23.63;;
77061;SDS011;65989;51.686;5.138;2023-02-15T01:22:51;47.17;;;22.83;;
77061;SDS011;65989;51.686;5.138;2023-02-15T01:25:17;54.40;;;21.70;;
77061;SDS011;65989;51.686;5.138;2023-02-15T01:27:43;45.10;;;22.00;;
77061;SDS011;65989;51.686;5.138;2023-02-15T01:30:09;42.50;;;21.40;;
77061;SDS011;65989;51.686;5.138;2023-02-15T01:32:35;46.35;;;22.02;;
77061;SDS011;65989;51.686;5.138;2023-02-15T01:35:01;44.50;;;21.87;;
77061;SDS011;65989;51.686;5.138;2023-02-15T01:37:27;49.45;;;23.30;;
77061;SDS011;65989;51.686;5.138;2023-02-15T01:39:56;44.85;;;21.45;;
77061;SDS011;65989;51.686;5.138;2023-02-15T01:42:24;49.07;;;22.50;;
77061;SDS011;65989;51.686;5.138;2023-02-15T01:44:54;49.88;;;22.10;;
77061;SDS011;65989;51.686;5.138;2023-02-15T01:47:23;47.63;;;23.25;;
77061;SDS011;65989;51.686;5.138;2023-02-15T01:52:55;43.95;;;22.08;;
77061;SDS011;65989;51.686;5.138;2023-02-15T01:55:27;42.22;;;21.92;;
77061;SDS011;65989;51.686;5.138;2023-02-15T01:57:58;46.13;;;22.02;;
77061;SDS011;65989;51.686;5.138;2023-02-15T02:00:24;49.97;;;23.58;;
77061;SDS011;65989;51.686;5.138;2023-02-15T02:02:50;46.63;;;22.87;;
77061;SDS011;65989;51.686;5.138;2023-02-15T02:05:19;51.53;;;22.85;;
77061;SDS011;65989;51.686;5.138;2023-02-15T02:07:45;53.90;;;24.33;;
77061;SDS011;65989;51.686;5.138;2023-02-15T02:10:15;49.63;;;23.23;;
77061;SDS011;65989;51.686;5.138;2023-02-15T02:12:42;51.72;;;23.55;;
77061;SDS011;65989;51.686;5.138;2023-02-15T02:15:10;54.80;;;25.30;;
77061;SDS011;65989;51.686;5.138;2023-02-15T02:17:53;50.90;;;24.52;;
77061;SDS011;65989;51.686;5.138;2023-02-15T02:23:36;47.65;;;23.20;;
77061;SDS011;65989;51.686;5.138;2023-02-15T02:32:44;44.10;;;23.67;;
77061;SDS011;65989;51.686;5.138;2023-02-15T02:40:36;49.58;;;23.30;;
77061;SDS011;65989;51.686;5.138;2023-02-15T02:44:18;43.93;;;22.43;;
77061;SDS011;65989;51.686;5.138;2023-02-15T02:46:32;44.88;;;21.85;;
77061;SDS011;65989;51.686;5.138;2023-02-15T02:49:29;55.17;;;23.77;;
77061;SDS011;65989;51.686;5.138;2023-02-15T02:51:59;50.58;;;24.80;;
77061;SDS011;65989;51.686;5.138;2023-02-15T02:54:25;46.35;;;22.15;;
77061;SDS011;65989;51.686;5.138;2023-02-15T02:56:53;52.40;;;24.43;;
77061;SDS011;65989;51.686;5.138;2023-02-15T02:59:30;47.75;;;22.40;;
77061;SDS011;65989;51.686;5.138;2023-02-15T03:02:10;47.65;;;23.70;;
77061;SDS011;65989;51.686;5.138;2023-02-15T03:04:44;43.20;;;21.30;;
77061;SDS011;65989;51.686;5.138;2023-02-15T03:07:15;44.95;;;22.08;;
77061;SDS011;65989;51.686;5.138;2023-02-15T03:09:47;56.03;;;23.93;;
77061;SDS011;65989;51.686;5.138;2023-02-15T03:12:20;45.63;;;22.27;;
77061;SDS011;65989;51.686;5.138;2023-02-15T03:14:48;50.55;;;23.70;;
77061;SDS011;65989;51.686;5.138;2023-02-15T03:17:19;47.72;;;22.00;;
77061;SDS011;65989;51.686;5.138;2023-02-15T03:19:46;49.33;;;23.77;;
77061;SDS011;65989;51.686;5.138;2023-02-15T03:22:17;48.53;;;23.83;;
77061;SDS011;65989;51.686;5.138;2023-02-15T03:27:43;46.75;;;22.52;;
77061;SDS011;65989;51.686;5.138;2023-02-15T03:30:11;46.72;;;22.83;;
77061;SDS011;65989;51.686;5.138;2023-02-15T03:32:39;46.60;;;23.77;;
77061;SDS011;65989;51.686;5.138;2023-02-15T03:35:08;46.03;;;23.30;;
77061;SDS011;65989;51.686;5.138;2023-02-15T03:37:38;48.95;;;22.83;;
77061;SDS011;65989;51.686;5.138;2023-02-15T03:40:11;48.75;;;22.75;;
77061;SDS011;65989;51.686;5.138;2023-02-15T03:43:00;47.37;;;22.07;;
77061;SDS011;65989;51.686;5.138;2023-02-15T03:45:33;44.85;;;21.50;;
77061;SDS011;65989;51.686;5.138;2023-02-15T03:48:06;50.47;;;22.98;;
77061;SDS011;65989;51.686;5.138;2023-02-15T03:50:33;48.53;;;22.20;;
77061;SDS011;65989;51.686;5.138;2023-02-15T03:53:21;48.33;;;23.13;;
77061;SDS011;65989;51.686;5.138;2023-02-15T03:55:48;46.73;;;22.37;;
77061;SDS011;65989;51.686;5.138;2023-02-15T03:58:19;50.28;;;22.60;;
77061;SDS011;65989;51.686;5.138;2023-02-15T04:01:03;48.65;;;22.85;;
77061;SDS011;65989;51.686;5.138;2023-02-15T04:06:23;47.15;;;22.45;;
77061;SDS011;65989;51.686;5.138;2023-02-15T04:08:49;49.20;;;22.60;;
77061;SDS011;65989;51.686;5.138;2023-02-15T04:11:32;48.38;;;22.10;;
77061;SDS011;65989;51.686;5.138;2023-02-15T04:13:57;47.07;;;22.37;;
77061;SDS011;65989;51.686;5.138;2023-02-15T04:16:23;50.10;;;22.60;;
77061;SDS011;65989;51.686;5.138;2023-02-15T04:18:49;49.50;;;23.33;;
77061;SDS011;65989;51.686;5.138;2023-02-15T04:21:33;51.28;;;23.45;;
77061;SDS011;65989;51.686;5.138;2023-02-15T04:24:17;51.20;;;22.40;;
77061;SDS011;65989;51.686;5.138;2023-02-15T04:27:01;43.57;;;20.87;;
77061;SDS011;65989;51.686;5.138;2023-02-15T04:29:28;46.28;;;22.48;;
77061;SDS011;65989;51.686;5.138;2023-02-15T04:31:54;48.85;;;22.77;;
77061;SDS011;65989;51.686;5.138;2023-02-15T04:34:21;47.63;;;22.85;;
77061;SDS011;65989;51.686;5.138;2023-02-15T04:36:47;51.63;;;22.83;;
77061;SDS011;65989;51.686;5.138;2023-02-15T04:39:13;43.35;;;21.27;;
77061;SDS011;65989;51.686;5.138;2023-02-15T04:41:39;46.37;;;21.60;;
77061;SDS011;65989;51.686;5.138;2023-02-15T04:44:05;40.72;;;21.08;;
77061;SDS011;65989;51.686;5.138;2023-02-15T04:46:31;48.27;;;20.77;;
77061;SDS011;65989;51.686;5.138;2023-02-15T04:48:56;44.40;;;21.88;;
77061;SDS011;65989;51.686;5.138;2023-02-15T04:51:22;44.77;;;21.80;;
77061;SDS011;65989;51.686;5.138;2023-02-15T04:53:48;47.78;;;21.40;;
77061;SDS011;65989;51.686;5.138;2023-02-15T04:56:13;42.00;;;21.23;;
77061;SDS011;65989;51.686;5.138;2023-02-15T04:58:39;41.17;;;21.30;;
77061;SDS011;65989;51.686;5.138;2023-02-15T05:01:07;43.90;;;21.08;;
77061;SDS011;65989;51.686;5.138;2023-02-15T05:03:33;43.08;;;21.35;;
77061;SDS011;65989;51.686;5.138;2023-02-15T05:05:59;44.47;;;20.27;;
77061;SDS011;65989;51.686;5.138;2023-02-15T05:08:24;40.78;;;21.13;;
77061;SDS011;65989;51.686;5.138;2023-02-15T05:10:50;39.53;;;20.67;;
77061;SDS011;65989;51.686;5.138;2023-02-15T05:13:15;42.30;;;21.93;;
77061;SDS011;65989;51.686;5.138;2023-02-15T05:15:41;40.77;;;20.17;;
77061;SDS011;65989;51.686;5.138;2023-02-15T05:18:06;43.10;;;21.50;;
77061;SDS011;65989;51.686;5.138;2023-02-15T05:20:32;42.63;;;21.02;;
77061;SDS011;65989;51.686;5.138;2023-02-15T05:22:58;42.67;;;20.33;;
77061;SDS011;65989;51.686;5.138;2023-02-15T05:25:23;40.30;;;21.20;;
77061;SDS011;65989;51.686;5.138;2023-02-15T05:28:08;44.35;;;20.73;;
77061;SDS011;65989;51.686;5.138;2023-02-15T05:30:44;47.30;;;22.80;;
77061;SDS011;65989;51.686;5.138;2023-02-15T05:33:25;41.70;;;20.20;;
77061;SDS011;65989;51.686;5.138;2023-02-15T05:35:50;46.30;;;21.98;;
77061;SDS011;65989;51.686;5.138;2023-02-15T05:38:16;44.83;;;21.10;;
77061;SDS011;65989;51.686;5.138;2023-02-15T05:40:41;43.07;;;20.53;;
77061;SDS011;65989;51.686;5.138;2023-02-15T05:43:07;45.03;;;23.00;;
77061;SDS011;65989;51.686;5.138;2023-02-15T05:45:32;42.10;;;21.23;;
77061;SDS011;65989;51.686;5.138;2023-02-15T05:47:57;40.27;;;20.30;;
77061;SDS011;65989;51.686;5.138;2023-02-15T05:50:23;43.80;;;22.13;;
77061;SDS011;65989;51.686;5.138;2023-02-15T05:52:50;42.70;;;21.58;;
77061;SDS011;65989;51.686;5.138;2023-02-15T05:55:15;38.53;;;19.73;;
77061;SDS011;65989;51.686;5.138;2023-02-15T05:57:41;46.50;;;21.47;;
77061;SDS011;65989;51.686;5.138;2023-02-15T06:00:06;48.63;;;22.77;;
77061;SDS011;65989;51.686;5.138;2023-02-15T06:02:33;46.83;;;21.83;;
77061;SDS011;65989;51.686;5.138;2023-02-15T06:04:59;44.97;;;21.85;;
77061;SDS011;65989;51.686;5.138;2023-02-15T06:07:25;43.10;;;22.37;;
77061;SDS011;65989;51.686;5.138;2023-02-15T06:09:50;46.93;;;22.63;;
77061;SDS011;65989;51.686;5.138;2023-02-15T06:12:16;45.07;;;22.17;;
77061;SDS011;65989;51.686;5.138;2023-02-15T06:14:41;40.33;;;20.42;;
77061;SDS011;65989;51.686;5.138;2023-02-15T06:17:06;46.47;;;20.77;;
77061;SDS011;65989;51.686;5.138;2023-02-15T06:19:32;44.80;;;20.23;;
77061;SDS011;65989;51.686;5.138;2023-02-15T06:21:57;38.97;;;19.33;;
77061;SDS011;65989;51.686;5.138;2023-02-15T06:24:22;37.10;;;19.20;;
77061;SDS011;65989;51.686;5.138;2023-02-15T06:26:48;38.77;;;20.17;;
77061;SDS011;65989;51.686;5.138;2023-02-15T06:29:13;39.00;;;20.10;;
77061;SDS011;65989;51.686;5.138;2023-02-15T06:31:38;44.10;;;22.73;;
77061;SDS011;65989;51.686;5.138;2023-02-15T06:34:04;40.17;;;20.40;;
77061;SDS011;65989;51.686;5.138;2023-02-15T06:36:30;41.97;;;20.57;;
77061;SDS011;65989;51.686;5.138;2023-02-15T06:38:56;43.30;;;21.45;;
77061;SDS011;65989;51.686;5.138;2023-02-15T06:41:22;40.70;;;20.25;;
77061;SDS011;65989;51.686;5.138;2023-02-15T06:43:48;45.40;;;21.67;;
77061;SDS011;65989;51.686;5.138;2023-02-15T06:46:13;48.25;;;22.00;;
77061;SDS011;65989;51.686;5.138;2023-02-15T06:48:39;42.10;;;20.77;;
77061;SDS011;65989;51.686;5.138;2023-02-15T06:51:04;46.03;;;21.77;;
77061;SDS011;65989;51.686;5.138;2023-02-15T06:53:30;44.90;;;20.02;;
77061;SDS011;65989;51.686;5.138;2023-02-15T06:56:02;45.37;;;21.47;;
77061;SDS011;65989;51.686;5.138;2023-02-15T06:58:38;45.92;;;22.33;;
77061;SDS011;65989;51.686;5.138;2023-02-15T07:01:04;47.20;;;21.77;;
77061;SDS011;65989;51.686;5.138;2023-02-15T07:03:31;47.35;;;23.00;;
77061;SDS011;65989;51.686;5.138;2023-02-15T07:05:57;43.67;;;21.00;;
77061;SDS011;65989;51.686;5.138;2023-02-15T07:08:24;50.03;;;22.45;;
77061;SDS011;65989;51.686;5.138;2023-02-15T07:10:50;50.42;;;22.63;;
77061;SDS011;65989;51.686;5.138;2023-02-15T07:13:16;44.43;;;21.67;;
77061;SDS011;65989;51.686;5.138;2023-02-15T07:15:42;48.17;;;23.17;;
77061;SDS011;65989;51.686;5.138;2023-02-15T07:18:08;47.30;;;22.37;;
77061;SDS011;65989;51.686;5.138;2023-02-15T07:20:35;46.05;;;21.75;;
77061;SDS011;65989;51.686;5.138;2023-02-15T07:23:02;49.83;;;23.25;;
77061;SDS011;65989;51.686;5.138;2023-02-15T07:25:28;44.78;;;21.77;;
77061;SDS011;65989;51.686;5.138;2023-02-15T07:28:01;40.95;;;20.90;;
77061;SDS011;65989;51.686;5.138;2023-02-15T07:30:28;46.90;;;22.20;;
77061;SDS011;65989;51.686;5.138;2023-02-15T07:32:57;43.97;;;21.95;;
77061;SDS011;65989;51.686;5.138;2023-02-15T07:35:52;45.60;;;20.83;;
77061;SDS011;65989;51.686;5.138;2023-02-15T07:38:19;43.72;;;21.23;;
77061;SDS011;65989;51.686;5.138;2023-02-15T07:40:45;40.50;;;21.05;;
77061;SDS011;65989;51.686;5.138;2023-02-15T07:43:11;45.50;;;23.33;;
77061;SDS011;65989;51.686;5.138;2023-02-15T07:45:37;47.17;;;22.05;;
77061;SDS011;65989;51.686;5.138;2023-02-15T07:48:03;42.08;;;21.23;;
77061;SDS011;65989;51.686;5.138;2023-02-15T07:50:29;50.17;;;23.03;;
77061;SDS011;65989;51.686;5.138;2023-02-15T07:52:55;45.30;;;21.67;;
77061;SDS011;65989;51.686;5.138;2023-02-15T07:55:20;47.00;;;22.30;;
77061;SDS011;65989;51.686;5.138;2023-02-15T07:57:47;52.33;;;24.10;;
77061;SDS011;65989;51.686;5.138;2023-02-15T08:00:15;49.25;;;24.33;;
77061;SDS011;65989;51.686;5.138;2023-02-15T08:02:42;53.33;;;23.75;;
77061;SDS011;65989;51.686;5.138;2023-02-15T08:05:12;57.17;;;25.33;;
77061;SDS011;65989;51.686;5.138;2023-02-15T08:07:37;52.77;;;23.77;;
77061;SDS011;65989;51.686;5.138;2023-02-15T08:10:03;58.40;;;26.27;;
77061;SDS011;65989;51.686;5.138;2023-02-15T08:12:28;54.53;;;26.23;;
77061;SDS011;65989;51.686;5.138;2023-02-15T08:14:54;58.17;;;27.77;;
77061;SDS011;65989;51.686;5.138;2023-02-15T08:17:19;56.87;;;26.80;;
77061;SDS011;65989;51.686;5.138;2023-02-15T08:19:45;52.57;;;26.60;;
77061;SDS011;65989;51.686;5.138;2023-02-15T08:22:12;56.50;;;26.15;;
77061;SDS011;65989;51.686;5.138;2023-02-15T08:24:39;58.88;;;27.83;;
77061;SDS011;65989;51.686;5.138;2023-02-15T08:27:06;58.47;;;27.45;;
77061;SDS011;65989;51.686;5.138;2023-02-15T08:29:33;56.38;;;27.90;;
77061;SDS011;65989;51.686;5.138;2023-02-15T08:32:02;63.63;;;28.07;;
77061;SDS011;65989;51.686;5.138;2023-02-15T08:34:30;55.72;;;26.33;;
77061;SDS011;65989;51.686;5.138;2023-02-15T08:36:59;58.08;;;27.85;;
77061;SDS011;65989;51.686;5.138;2023-02-15T08:39:24;64.10;;;30.00;;
77061;SDS011;65989;51.686;5.138;2023-02-15T08:41:49;62.33;;;29.52;;
77061;SDS011;65989;51.686;5.138;2023-02-15T08:44:16;63.13;;;29.37;;
77061;SDS011;65989;51.686;5.138;2023-02-15T08:46:44;55.17;;;28.20;;
77061;SDS011;65989;51.686;5.138;2023-02-15T08:49:11;62.63;;;30.27;;
77061;SDS011;65989;51.686;5.138;2023-02-15T08:51:38;54.90;;;26.93;;
77061;SDS011;65989;51.686;5.138;2023-02-15T08:54:05;64.72;;;27.95;;
77061;SDS011;65989;51.686;5.138;2023-02-15T08:56:33;58.88;;;28.70;;
77061;SDS011;65989;51.686;5.138;2023-02-15T08:59:00;57.30;;;29.17;;
77061;SDS011;65989;51.686;5.138;2023-02-15T09:01:27;67.18;;;29.88;;
77061;SDS011;65989;51.686;5.138;2023-02-15T09:03:55;66.57;;;31.03;;
77061;SDS011;65989;51.686;5.138;2023-02-15T09:06:25;56.65;;;29.45;;
77061;SDS011;65989;51.686;5.138;2023-02-15T09:08:52;64.15;;;29.88;;
77061;SDS011;65989;51.686;5.138;2023-02-15T09:11:26;64.05;;;31.13;;
77061;SDS011;65989;51.686;5.138;2023-02-15T09:13:57;63.20;;;31.05;;
77061;SDS011;65989;51.686;5.138;2023-02-15T09:16:25;68.57;;;30.90;;
77061;SDS011;65989;51.686;5.138;2023-02-15T09:18:52;69.13;;;30.30;;
77061;SDS011;65989;51.686;5.138;2023-02-15T09:21:19;60.58;;;29.98;;
77061;SDS011;65989;51.686;5.138;2023-02-15T09:23:48;63.63;;;29.85;;
77061;SDS011;65989;51.686;5.138;2023-02-15T09:26:16;63.75;;;30.05;;
77061;SDS011;65989;51.686;5.138;2023-02-15T09:28:43;66.10;;;31.13;;
77061;SDS011;65989;51.686;5.138;2023-02-15T09:31:09;64.53;;;30.35;;
77061;SDS011;65989;51.686;5.138;2023-02-15T09:33:37;62.15;;;29.30;;
77061;SDS011;65989;51.686;5.138;2023-02-15T09:36:04;60.67;;;30.43;;
77061;SDS011;65989;51.686;5.138;2023-02-15T09:38:30;63.92;;;29.58;;
77061;SDS011;65989;51.686;5.138;2023-02-15T09:41:01;62.55;;;29.52;;
77061;SDS011;65989;51.686;5.138;2023-02-15T09:43:38;67.72;;;31.70;;
77061;SDS011;65989;51.686;5.138;2023-02-15T09:46:18;64.57;;;30.95;;
77061;SDS011;65989;51.686;5.138;2023-02-15T09:48:55;61.67;;;30.43;;
77061;SDS011;65989;51.686;5.138;2023-02-15T09:51:42;61.08;;;31.05;;
77061;SDS011;65989;51.686;5.138;2023-02-15T09:57:10;59.17;;;29.55;;
77061;SDS011;65989;51.686;5.138;2023-02-15T10:12:54;63.17;;;31.05;;
77061;SDS011;65989;51.686;5.138;2023-02-15T10:15:38;55.90;;;29.63;;
77061;SDS011;65989;51.686;5.138;2023-02-15T10:20:52;59.42;;;29.83;;
77061;SDS011;65989;51.686;5.138;2023-02-15T10:23:28;61.25;;;31.20;;
77061;SDS011;65989;51.686;5.138;2023-02-15T10:28:46;60.30;;;30.90;;
77061;SDS011;65989;51.686;5.138;2023-02-15T10:31:23;57.63;;;29.73;;
77061;SDS011;65989;51.686;5.138;2023-02-15T10:37:27;55.83;;;28.98;;
77061;SDS011;65989;51.686;5.138;2023-02-15T10:40:02;56.42;;;28.70;;
77061;SDS011;65989;51.686;5.138;2023-02-15T10:59:06;53.92;;;28.80;;
77061;SDS011;65989;51.686;5.138;2023-02-15T11:01:40;55.42;;;29.48;;
77061;SDS011;65989;51.686;5.138;2023-02-15T11:07:06;53.60;;;27.95;;
77061;SDS011;65989;51.686;5.138;2023-02-15T11:09:41;54.95;;;27.98;;
77061;SDS011;65989;51.686;5.138;2023-02-15T11:12:12;56.97;;;28.27;;
77061;SDS011;65989;51.686;5.138;2023-02-15T11:17:37;52.10;;;26.43;;
77061;SDS011;65989;51.686;5.138;2023-02-15T11:20:25;53.47;;;26.45;;
77061;SDS011;65989;51.686;5.138;2023-02-15T11:22:58;51.15;;;25.85;;
77061;SDS011;65989;51.686;5.138;2023-02-15T11:25:28;51.25;;;26.77;;
77061;SDS011;65989;51.686;5.138;2023-02-15T11:27:56;50.50;;;24.92;;
77061;SDS011;65989;51.686;5.138;2023-02-15T11:30:23;49.73;;;25.53;;
77061;SDS011;65989;51.686;5.138;2023-02-15T11:32:55;56.85;;;24.02;;
77061;SDS011;65989;51.686;5.138;2023-02-15T11:35:31;46.60;;;24.10;;
77061;SDS011;65989;51.686;5.138;2023-02-15T11:41:11;51.35;;;23.88;;
77061;SDS011;65989;51.686;5.138;2023-02-15T11:46:22;53.97;;;23.58;;
77061;SDS011;65989;51.686;5.138;2023-02-15T11:48:47;54.23;;;24.07;;
77061;SDS011;65989;51.686;5.138;2023-02-15T11:51:14;49.45;;;25.35;;
77061;SDS011;65989;51.686;5.138;2023-02-15T11:53:42;48.50;;;24.73;;
77061;SDS011;65989;51.686;5.138;2023-02-15T11:56:16;48.50;;;24.75;;
77061;SDS011;65989;51.686;5.138;2023-02-15T11:58:48;48.77;;;23.97;;
77061;SDS011;65989;51.686;5.138;2023-02-15T12:04:06;53.55;;;25.95;;
77061;SDS011;65989;51.686;5.138;2023-02-15T12:12:25;47.63;;;24.80;;
77061;SDS011;65989;51.686;5.138;2023-02-15T12:15:01;45.42;;;23.98;;
77061;SDS011;65989;51.686;5.138;2023-02-15T12:17:41;47.38;;;24.67;;
77061;SDS011;65989;51.686;5.138;2023-02-15T12:23:02;45.57;;;22.00;;
77061;SDS011;65989;51.686;5.138;2023-02-15T12:25:39;46.35;;;24.20;;
77061;SDS011;65989;51.686;5.138;2023-02-15T12:28:38;49.75;;;24.25;;
77061;SDS011;65989;51.686;5.138;2023-02-15T12:31:35;42.27;;;22.97;;
77061;SDS011;65989;51.686;5.138;2023-02-15T12:34:03;50.60;;;24.10;;
77061;SDS011;65989;51.686;5.138;2023-02-15T12:36:41;43.38;;;22.73;;
77061;SDS011;65989;51.686;5.138;2023-02-15T12:41:36;48.50;;;23.93;;
77061;SDS011;65989;51.686;5.138;2023-02-15T12:44:07;46.35;;;22.98;;
77061;SDS011;65989;51.686;5.138;2023-02-15T12:46:40;47.20;;;24.03;;
77061;SDS011;65989;51.686;5.138;2023-02-15T12:51:48;45.00;;;22.48;;
77061;SDS011;65989;51.686;5.138;2023-02-15T12:56:42;44.53;;;23.10;;
77061;SDS011;65989;51.686;5.138;2023-02-15T12:59:12;42.93;;;22.47;;
77061;SDS011;65989;51.686;5.138;2023-02-15T13:01:39;48.38;;;21.58;;
77061;SDS011;65989;51.686;5.138;2023-02-15T13:06:51;43.92;;;22.10;;
77061;SDS011;65989;51.686;5.138;2023-02-15T13:11:56;46.25;;;22.05;;
77061;SDS011;65989;51.686;5.138;2023-02-15T13:14:36;42.72;;;22.10;;
77061;SDS011;65989;51.686;5.138;2023-02-15T13:17:03;47.08;;;22.30;;
77061;SDS011;65989;51.686;5.138;2023-02-15T13:19:36;43.00;;;21.25;;
77061;SDS011;65989;51.686;5.138;2023-02-15T13:22:10;44.83;;;21.80;;
77061;SDS011;65989;51.686;5.138;2023-02-15T13:24:41;39.20;;;20.17;;
77061;SDS011;65989;51.686;5.138;2023-02-15T13:27:15;41.58;;;20.85;;
77061;SDS011;65989;51.686;5.138;2023-02-15T13:29:44;44.85;;;21.05;;
77061;SDS011;65989;51.686;5.138;2023-02-15T13:32:33;39.47;;;20.88;;
77061;SDS011;65989;51.686;5.138;2023-02-15T13:35:02;42.10;;;20.87;;
77061;SDS011;65989;51.686;5.138;2023-02-15T13:37:37;45.50;;;22.08;;
77061;SDS011;65989;51.686;5.138;2023-02-15T13:40:08;44.28;;;22.40;;
77061;SDS011;65989;51.686;5.138;2023-02-15T13:42:46;44.88;;;22.25;;
77061;SDS011;65989;51.686;5.138;2023-02-15T13:45:24;42.97;;;21.45;;
77061;SDS011;65989;51.686;5.138;2023-02-15T13:53:19;46.22;;;23.00;;
77061;SDS011;65989;51.686;5.138;2023-02-15T14:10:06;43.45;;;22.00;;
77061;SDS011;65989;51.686;5.138;2023-02-15T14:16:16;42.47;;;20.70;;
77061;SDS011;65989;51.686;5.138;2023-02-15T14:18:46;41.47;;;20.98;;
77061;SDS011;65989;51.686;5.138;2023-02-15T14:30:02;41.20;;;21.17;;
77061;SDS011;65989;51.686;5.138;2023-02-15T14:32:49;44.33;;;21.90;;
77061;SDS011;65989;51.686;5.138;2023-02-15T14:35:23;36.88;;;21.48;;
77061;SDS011;65989;51.686;5.138;2023-02-15T14:37:58;47.80;;;22.50;;
77061;SDS011;65989;51.686;5.138;2023-02-15T14:46:30;53.95;;;22.92;;
77061;SDS011;65989;51.686;5.138;2023-02-15T14:49:25;50.42;;;23.02;;
77061;SDS011;65989;51.686;5.138;2023-02-15T14:52:07;46.42;;;23.83;;
77061;SDS011;65989;51.686;5.138;2023-02-15T14:59:27;44.03;;;22.07;;
77061;SDS011;65989;51.686;5.138;2023-02-15T15:04:56;42.70;;;20.53;;
77061;SDS011;65989;51.686;5.138;2023-02-15T15:07:37;42.65;;;21.83;;
77061;SDS011;65989;51.686;5.138;2023-02-15T15:12:43;44.17;;;22.95;;
77061;SDS011;65989;51.686;5.138;2023-02-15T15:15:15;45.03;;;22.27;;
77061;SDS011;65989;51.686;5.138;2023-02-15T15:18:10;41.07;;;21.63;;
77061;SDS011;65989;51.686;5.138;2023-02-15T15:32:43;46.97;;;23.00;;
77061;SDS011;65989;51.686;5.138;2023-02-15T15:35:27;43.40;;;22.65;;
77061;SDS011;65989;51.686;5.138;2023-02-15T15:41:39;42.47;;;21.55;;
77061;SDS011;65989;51.686;5.138;2023-02-15T15:49:19;42.47;;;22.42;;
77061;SDS011;65989;51.686;5.138;2023-02-15T15:51:46;46.28;;;23.42;;
77061;SDS011;65989;51.686;5.138;2023-02-15T15:54:18;45.75;;;23.98;;
77061;SDS011;65989;51.686;5.138;2023-02-15T15:56:47;46.28;;;23.67;;
77061;SDS011;65989;51.686;5.138;2023-02-15T15:59:26;47.20;;;23.20;;
77061;SDS011;65989;51.686;5.138;2023-02-15T16:01:55;44.90;;;22.40;;
77061;SDS011;65989;51.686;5.138;2023-02-15T16:06:55;48.85;;;23.30;;
77061;SDS011;65989;51.686;5.138;2023-02-15T16:09:23;47.50;;;22.97;;
77061;SDS011;65989;51.686;5.138;2023-02-15T16:11:51;46.60;;;24.17;;
77061;SDS011;65989;51.686;5.138;2023-02-15T16:17:06;54.95;;;23.90;;
77061;SDS011;65989;51.686;5.138;2023-02-15T16:19:39;43.05;;;23.58;;
77061;SDS011;65989;51.686;5.138;2023-02-15T16:22:12;43.03;;;22.97;;
77061;SDS011;65989;51.686;5.138;2023-02-15T16:24:47;51.97;;;24.05;;
77061;SDS011;65989;51.686;5.138;2023-02-15T16:27:37;43.00;;;22.23;;
77061;SDS011;65989;51.686;5.138;2023-02-15T16:32:54;44.78;;;23.33;;
77061;SDS011;65989;51.686;5.138;2023-02-15T16:35:29;46.90;;;22.83;;
77061;SDS011;65989;51.686;5.138;2023-02-15T16:37:55;47.42;;;24.17;;
77061;SDS011;65989;51.686;5.138;2023-02-15T16:43:13;48.13;;;23.83;;
77061;SDS011;65989;51.686;5.138;2023-02-15T16:45:47;45.22;;;22.92;;
77061;SDS011;65989;51.686;5.138;2023-02-15T16:48:16;47.85;;;23.50;;
77061;SDS011;65989;51.686;5.138;2023-02-15T16:50:47;47.80;;;24.50;;
77061;SDS011;65989;51.686;5.138;2023-02-15T16:53:20;52.30;;;25.13;;
77061;SDS011;65989;51.686;5.138;2023-02-15T16:55:50;48.03;;;24.40;;
77061;SDS011;65989;51.686;5.138;2023-02-15T16:58:19;51.17;;;25.35;;
77061;SDS011;65989;51.686;5.138;2023-02-15T17:01:02;49.78;;;25.15;;
77061;SDS011;65989;51.686;5.138;2023-02-15T17:03:32;48.65;;;24.10;;
77061;SDS011;65989;51.686;5.138;2023-02-15T17:05:58;48.00;;;24.97;;
77061;SDS011;65989;51.686;5.138;2023-02-15T17:13:38;50.17;;;25.15;;
77061;SDS011;65989;51.686;5.138;2023-02-15T17:21:00;54.83;;;25.73;;
77061;SDS011;65989;51.686;5.138;2023-02-15T17:23:40;53.80;;;25.73;;
77061;SDS011;65989;51.686;5.138;2023-02-15T17:26:50;50.63;;;23.17;;
77061;SDS011;65989;51.686;5.138;2023-02-15T17:31:49;47.87;;;24.63;;
77061;SDS011;65989;51.686;5.138;2023-02-15T17:37:25;45.40;;;23.13;;
77061;SDS011;65989;51.686;5.138;2023-02-15T17:40:40;49.55;;;24.65;;
77061;SDS011;65989;51.686;5.138;2023-02-15T17:42:51;47.03;;;24.38;;
77061;SDS011;65989;51.686;5.138;2023-02-15T17:45:17;51.03;;;24.43;;
77061;SDS011;65989;51.686;5.138;2023-02-15T17:47:43;53.20;;;26.27;;
77061;SDS011;65989;51.686;5.138;2023-02-15T17:50:15;51.13;;;25.05;;
77061;SDS011;65989;51.686;5.138;2023-02-15T17:52:48;53.47;;;25.52;;
77061;SDS011;65989;51.686;5.138;2023-02-15T17:55:16;52.00;;;25.20;;
77061;SDS011;65989;51.686;5.138;2023-02-15T17:58:03;49.05;;;24.75;;